Terminal Aerodrome Forecast
Issued by NWS Austin/San Antonio, TX

Home | Current Version | Previous Version | Text Only | Print | Product List | Glossary On
Versions: 1 2 3 4 5 6 7 8 9 10 11 12 13 14 15 16 17 18 19 20 21 22 23
000
FTUS44 KEWX 221130
TAFAUS
TAF
KAUS 221130Z 2212/2318 01009KT 5SM BR VCSH OVC007
     FM221800 04004KT P6SM BKN015
     FM222100 07006KT P6SM SCT025 BKN050
     FM230300 09003KT P6SM VCSH BKN015=

USA.gov is the U.S. government's official web portal to all federal, state and local government web resources and services.